createdAt,value
2022-12-18T00:01:17.796Z,-4.00
2022-12-18T00:03:45.341Z,-4.00
2022-12-18T00:06:13.153Z,-4.10
2022-12-18T00:08:40.004Z,-4.10
2022-12-18T00:11:08.316Z,-4.10
2022-12-18T00:13:36.189Z,-4.10
2022-12-18T00:16:12.245Z,-4.20
2022-12-18T00:18:40.391Z,-4.10
2022-12-18T00:21:11.148Z,-4.20
2022-12-18T00:23:39.462Z,-4.10
2022-12-18T00:26:11.039Z,-4.10
2022-12-18T00:28:37.917Z,-4.20
2022-12-18T00:31:06.931Z,-4.20
2022-12-18T00:33:34.383Z,-4.10
2022-12-18T00:36:32.806Z,-4.20
2022-12-18T00:39:01.646Z,-4.20
2022-12-18T00:41:47.917Z,-4.20
2022-12-18T00:44:16.837Z,-4.10
2022-12-18T00:46:44.898Z,-4.10
2022-12-18T00:49:13.369Z,-4.20
2022-12-18T00:51:40.306Z,-4.30
2022-12-18T00:54:07.377Z,-4.30
2022-12-18T00:56:39.385Z,-4.30
2022-12-18T00:59:12.602Z,-4.20
2022-12-18T01:01:39.767Z,-4.20
2022-12-18T01:04:06.917Z,-4.20
2022-12-18T01:06:33.934Z,-4.20
2022-12-18T01:09:00.747Z,-4.30
2022-12-18T01:11:27.665Z,-4.30
2022-12-18T01:13:55.734Z,-4.20
2022-12-18T01:16:23.373Z,-4.20
2022-12-18T01:18:54.720Z,-4.30
2022-12-18T01:21:22.833Z,-4.30
2022-12-18T01:23:54.373Z,-4.40
2022-12-18T01:26:21.172Z,-4.40
2022-12-18T01:28:48.395Z,-4.50
2022-12-18T01:31:17.281Z,-4.50
2022-12-18T01:33:45.014Z,-4.50
2022-12-18T01:36:40.029Z,-4.60
2022-12-18T01:39:13.387Z,-4.60
2022-12-18T01:41:59.181Z,-4.70
2022-12-18T01:44:57.064Z,-4.70
2022-12-18T01:47:42.813Z,-4.70
2022-12-18T01:50:39.368Z,-4.80
2022-12-18T01:53:06.280Z,-4.80
2022-12-18T01:55:39.459Z,-4.80
2022-12-18T01:58:06.529Z,-4.80
2022-12-18T02:00:33.426Z,-4.90
2022-12-18T02:03:00.339Z,-4.90
2022-12-18T02:05:54.375Z,-4.80
2022-12-18T02:08:24.007Z,-4.90
2022-12-18T02:11:02.596Z,-5.00
2022-12-18T02:13:54.177Z,-5.00
2022-12-18T02:16:51.924Z,-5.00
2022-12-18T02:19:28.359Z,-5.10
2022-12-18T02:22:27.440Z,-5.10
2022-12-18T02:25:14.801Z,-5.10
2022-12-18T02:27:45.159Z,-5.10
2022-12-18T02:30:12.507Z,-5.20
2022-12-18T02:32:43.288Z,-5.20
2022-12-18T02:35:17.658Z,-5.10
2022-12-18T02:37:47.898Z,-5.20
2022-12-18T02:40:16.691Z,-5.10
2022-12-18T02:42:43.644Z,-5.10
2022-12-18T02:45:11.158Z,-5.10
2022-12-18T02:47:41.204Z,-5.10
2022-12-18T02:50:37.390Z,-5.10
2022-12-18T02:53:19.737Z,-5.10
2022-12-18T02:56:06.931Z,-5.00
2022-12-18T02:58:54.674Z,-5.00
2022-12-18T03:01:28.293Z,-5.00
2022-12-18T03:04:06.755Z,-5.00
2022-12-18T03:06:41.415Z,-5.00
2022-12-18T03:09:13.304Z,-5.00
2022-12-18T03:12:02.520Z,-5.00
2022-12-18T03:14:33.094Z,-5.00
2022-12-18T03:17:04.923Z,-5.00
2022-12-18T03:19:34.231Z,-4.90
2022-12-18T03:22:04.578Z,-5.00
2022-12-18T03:24:32.804Z,-5.00
2022-12-18T03:27:03.382Z,-4.90
2022-12-18T03:29:41.887Z,-4.90
2022-12-18T03:32:25.758Z,-4.90
2022-12-18T03:34:54.988Z,-5.00
2022-12-18T03:37:21.935Z,-5.00
2022-12-18T03:39:48.802Z,-5.00
2022-12-18T03:42:38.429Z,-5.10
2022-12-18T03:45:10.974Z,-5.10
2022-12-18T03:47:56.238Z,-5.10
2022-12-18T03:50:37.647Z,-5.10
2022-12-18T03:53:13.634Z,-5.20
2022-12-18T03:55:41.746Z,-5.20
2022-12-18T03:58:09.936Z,-5.20
2022-12-18T04:00:37.389Z,-5.20
2022-12-18T04:03:06.487Z,-5.30
2022-12-18T04:05:34.810Z,-5.30
2022-12-18T04:08:02.524Z,-5.30
2022-12-18T04:10:29.507Z,-5.30
2022-12-18T04:12:59.756Z,-5.30
2022-12-18T04:15:26.787Z,-5.40
2022-12-18T04:17:53.835Z,-5.40
2022-12-18T04:20:20.741Z,-5.40
2022-12-18T04:22:47.897Z,-5.30
2022-12-18T04:25:15.269Z,-5.30
2022-12-18T04:27:42.163Z,-5.30
2022-12-18T04:30:09.961Z,-5.40
2022-12-18T04:32:37.286Z,-5.50
2022-12-18T04:35:05.423Z,-5.40
2022-12-18T04:37:32.430Z,-5.40
2022-12-18T04:39:59.360Z,-5.40
2022-12-18T04:42:26.209Z,-5.40
2022-12-18T04:44:53.109Z,-5.40
2022-12-18T04:47:19.980Z,-5.50
2022-12-18T04:49:46.889Z,-5.60
2022-12-18T04:52:13.863Z,-5.60
2022-12-18T04:54:40.820Z,-5.60
2022-12-18T04:57:07.822Z,-5.50
2022-12-18T04:59:34.735Z,-5.50
2022-12-18T05:02:01.910Z,-5.60
2022-12-18T05:04:28.901Z,-5.60
2022-12-18T05:06:55.926Z,-5.70
2022-12-18T05:09:24.297Z,-5.60
2022-12-18T05:11:51.192Z,-5.70
2022-12-18T05:14:18.116Z,-5.60
2022-12-18T05:16:45.044Z,-5.70
2022-12-18T05:19:12.788Z,-5.70
2022-12-18T05:21:40.089Z,-5.70
2022-12-18T05:24:07.372Z,-5.70
2022-12-18T05:26:36.220Z,-5.70
2022-12-18T05:29:03.268Z,-5.70
2022-12-18T05:31:34.587Z,-5.70
2022-12-18T05:34:04.452Z,-5.80
2022-12-18T05:36:31.348Z,-5.70
2022-12-18T05:38:58.261Z,-5.80
2022-12-18T05:41:25.177Z,-5.70
2022-12-18T05:43:52.023Z,-5.80
2022-12-18T05:46:19.211Z,-5.80
2022-12-18T05:48:46.464Z,-5.80
2022-12-18T05:51:16.890Z,-5.80
2022-12-18T05:53:44.482Z,-5.80
2022-12-18T05:56:19.784Z,-5.80
2022-12-18T05:58:47.379Z,-5.80
2022-12-18T06:01:23.986Z,-5.80
2022-12-18T06:03:51.016Z,-5.90
2022-12-18T06:06:23.697Z,-5.90
2022-12-18T06:08:51.637Z,-5.90
2022-12-18T06:11:21.266Z,-5.90
2022-12-18T06:13:56.165Z,-6.00
2022-12-18T06:16:25.109Z,-6.10
2022-12-18T06:18:52.114Z,-6.10
2022-12-18T06:21:19.067Z,-6.20
2022-12-18T06:23:45.963Z,-6.20
2022-12-18T06:26:13.898Z,-6.20
2022-12-18T06:28:41.153Z,-6.30
2022-12-18T06:31:09.895Z,-6.30
2022-12-18T06:33:37.301Z,-6.30
2022-12-18T06:36:11.385Z,-6.30
2022-12-18T06:38:42.548Z,-6.30
2022-12-18T06:41:11.423Z,-6.30
2022-12-18T06:43:39.033Z,-6.30
2022-12-18T06:46:06.991Z,-6.30
2022-12-18T06:48:34.340Z,-6.40
2022-12-18T06:51:01.831Z,-6.30
2022-12-18T06:53:28.672Z,-6.30
2022-12-18T06:56:10.325Z,-6.40
2022-12-18T06:58:38.071Z,-6.40
2022-12-18T07:01:07.290Z,-6.30
2022-12-18T07:03:34.347Z,-6.40
2022-12-18T07:06:01.145Z,-6.30
2022-12-18T07:08:29.482Z,-6.30
2022-12-18T07:10:56.620Z,-6.50
2022-12-18T07:13:23.810Z,-6.40
2022-12-18T07:15:50.734Z,-6.40
2022-12-18T07:18:17.591Z,-6.40
2022-12-18T07:20:45.235Z,-6.40
2022-12-18T07:23:12.984Z,-6.40
2022-12-18T07:25:40.768Z,-6.40
2022-12-18T07:28:09.603Z,-6.50
2022-12-18T07:30:39.500Z,-6.50
2022-12-18T07:33:06.358Z,-6.50
2022-12-18T07:35:34.594Z,-6.40
2022-12-18T07:38:01.672Z,-6.50
2022-12-18T07:40:31.306Z,-6.50
2022-12-18T07:42:58.244Z,-6.60
2022-12-18T07:45:25.245Z,-6.40
2022-12-18T07:47:52.250Z,-6.40
2022-12-18T07:50:19.174Z,-6.40
2022-12-18T07:52:45.981Z,-6.50
2022-12-18T07:55:13.009Z,-6.40
2022-12-18T07:57:52.549Z,-6.40
2022-12-18T08:00:21.439Z,-6.30
2022-12-18T08:02:48.557Z,-6.30
2022-12-18T08:05:15.691Z,-6.30
2022-12-18T08:07:42.591Z,-6.20
2022-12-18T08:10:09.859Z,-6.20
2022-12-18T08:12:36.723Z,-6.20
2022-12-18T08:15:03.781Z,-6.20
2022-12-18T08:17:31.522Z,-6.20
2022-12-18T08:19:58.433Z,-6.20
2022-12-18T08:22:25.526Z,-6.10
2022-12-18T08:24:52.365Z,-6.10
2022-12-18T08:27:34.633Z,-6.00
2022-12-18T08:30:01.659Z,-6.20
2022-12-18T08:32:29.141Z,-6.00
2022-12-18T08:34:56.061Z,-6.00
2022-12-18T08:37:23.069Z,-5.90
2022-12-18T08:39:49.902Z,-5.90
2022-12-18T08:42:35.365Z,-5.90
2022-12-18T08:45:02.981Z,-5.90
2022-12-18T08:47:30.018Z,-5.80
2022-12-18T08:49:56.979Z,-5.70
2022-12-18T08:52:23.869Z,-5.70
2022-12-18T08:54:50.913Z,-5.70
2022-12-18T08:57:17.769Z,-5.70
2022-12-18T08:59:44.632Z,-5.70
2022-12-18T09:02:12.816Z,-5.50
2022-12-18T09:04:41.717Z,-5.50
2022-12-18T09:07:09.019Z,-5.50
2022-12-18T09:09:36.734Z,-5.50
2022-12-18T09:12:03.783Z,-5.50
2022-12-18T09:14:30.792Z,-5.40
2022-12-18T09:16:57.739Z,-5.40
2022-12-18T09:19:24.641Z,-5.40
2022-12-18T09:21:51.516Z,-5.30
2022-12-18T09:24:18.467Z,-5.30
2022-12-18T09:26:47.331Z,-5.30
2022-12-18T09:29:16.205Z,-5.20
2022-12-18T09:31:43.756Z,-5.20
2022-12-18T09:34:10.735Z,-5.20
2022-12-18T09:36:37.684Z,-5.10
2022-12-18T09:39:08.053Z,-5.10
2022-12-18T09:41:52.184Z,-5.00
2022-12-18T09:44:28.519Z,-5.00
2022-12-18T09:47:20.728Z,-5.10
2022-12-18T09:49:51.855Z,-5.00
2022-12-18T09:52:24.804Z,-4.90
2022-12-18T09:54:58.939Z,-4.90
2022-12-18T09:57:26.925Z,-4.80
2022-12-18T10:00:22.494Z,-4.80
2022-12-18T10:02:53.359Z,-4.70
2022-12-18T10:05:59.615Z,-4.70
2022-12-18T10:08:47.292Z,-4.70
2022-12-18T10:11:35.809Z,-4.60
2022-12-18T10:14:14.430Z,-4.60
2022-12-18T10:17:06.071Z,-4.50
2022-12-18T10:19:50.508Z,-4.50
2022-12-18T10:22:25.922Z,-4.50
2022-12-18T10:25:19.802Z,-4.50
2022-12-18T10:27:47.452Z,-4.50
2022-12-18T10:30:16.905Z,-4.40
2022-12-18T10:32:43.929Z,-4.40
2022-12-18T10:35:20.141Z,-4.30
2022-12-18T10:38:11.682Z,-4.30
2022-12-18T10:40:58.483Z,-4.20
2022-12-18T10:43:31.221Z,-4.30
2022-12-18T10:46:09.193Z,-4.20
2022-12-18T10:48:48.479Z,-4.20
2022-12-18T10:51:27.809Z,-4.10
2022-12-18T10:54:02.657Z,-4.20
2022-12-18T10:56:32.607Z,-4.10
2022-12-18T10:59:05.901Z,-4.00
2022-12-18T11:01:58.490Z,-4.00
2022-12-18T11:04:33.523Z,-4.00
2022-12-18T11:07:04.932Z,-4.00
2022-12-18T11:09:40.858Z,-4.00
2022-12-18T11:12:19.412Z,-3.90
2022-12-18T11:14:50.507Z,-3.90
2022-12-18T11:17:26.108Z,-3.90
2022-12-18T11:20:01.998Z,-3.90
2022-12-18T11:22:34.362Z,-3.90
2022-12-18T11:25:35.754Z,-3.90
2022-12-18T11:28:04.619Z,-3.90
2022-12-18T11:30:34.304Z,-3.80
2022-12-18T11:33:22.806Z,-3.80
2022-12-18T11:36:00.142Z,-3.80
2022-12-18T11:38:37.571Z,-3.80
2022-12-18T11:41:10.593Z,-3.80
2022-12-18T11:43:45.211Z,-3.70
2022-12-18T11:46:19.629Z,-3.70
2022-12-18T11:48:46.943Z,-3.70
2022-12-18T11:51:27.908Z,-3.70
2022-12-18T11:53:55.252Z,-3.70
2022-12-18T11:56:36.603Z,-3.60
2022-12-18T11:59:17.627Z,-3.60
2022-12-18T12:02:15.857Z,-3.50
2022-12-18T12:05:00.078Z,-3.50
2022-12-18T12:07:29.894Z,-3.50
2022-12-18T12:09:59.556Z,-3.50
2022-12-18T12:12:51.233Z,-3.50
2022-12-18T12:15:29.835Z,-3.40
2022-12-18T12:17:59.436Z,-3.40
2022-12-18T12:20:55.201Z,-3.40
2022-12-18T12:23:27.356Z,-3.40
2022-12-18T12:26:11.050Z,-3.40
2022-12-18T12:29:25.887Z,-3.40
2022-12-18T12:32:14.633Z,-3.40
2022-12-18T12:35:00.993Z,-3.30
2022-12-18T12:37:55.664Z,-3.30
2022-12-18T12:40:51.396Z,-3.30
2022-12-18T12:43:14.251Z,-3.30
2022-12-18T12:46:04.745Z,-3.40
2022-12-18T12:48:54.098Z,-3.30
2022-12-18T12:51:35.416Z,-3.30
2022-12-18T12:54:03.760Z,-3.40
2022-12-18T12:56:50.817Z,-3.30
2022-12-18T12:59:25.969Z,-3.30
2022-12-18T13:02:34.201Z,-3.20
2022-12-18T13:05:26.176Z,-3.20
2022-12-18T13:07:53.641Z,-3.20
2022-12-18T13:10:32.308Z,-3.20
2022-12-18T13:13:16.557Z,-3.10
2022-12-18T13:16:08.217Z,-3.00
2022-12-18T13:18:36.022Z,-3.00
2022-12-18T13:21:12.721Z,-3.00
2022-12-18T13:23:40.259Z,-3.00
2022-12-18T13:26:08.688Z,-2.90
2022-12-18T13:28:47.815Z,-3.00
2022-12-18T13:31:42.883Z,-3.00
2022-12-18T13:34:29.569Z,-3.00
2022-12-18T13:37:18.297Z,-3.00
2022-12-18T13:39:45.261Z,-3.00
2022-12-18T13:42:32.828Z,-3.00
2022-12-18T13:44:59.888Z,-3.00
2022-12-18T13:47:29.667Z,-3.00
2022-12-18T13:49:58.103Z,-3.00
2022-12-18T13:52:38.607Z,-3.00
2022-12-18T13:55:15.759Z,-3.00
2022-12-18T13:57:42.936Z,-3.00
2022-12-18T14:00:29.676Z,-3.00
2022-12-18T14:02:58.418Z,-3.00
2022-12-18T14:05:47.039Z,-3.00
2022-12-18T14:08:19.104Z,-3.10
2022-12-18T14:10:49.927Z,-3.10
2022-12-18T14:13:31.052Z,-3.10
2022-12-18T14:16:02.561Z,-3.00
2022-12-18T14:18:44.983Z,-3.10
2022-12-18T14:21:28.922Z,-3.10
2022-12-18T14:24:06.960Z,-3.10
2022-12-18T14:26:34.509Z,-3.10
2022-12-18T14:29:19.482Z,-3.00
2022-12-18T14:31:47.111Z,-3.10
2022-12-18T14:34:17.937Z,-3.00
2022-12-18T14:36:55.047Z,-3.00
2022-12-18T14:39:21.901Z,-2.90
2022-12-18T14:41:53.676Z,-3.00
2022-12-18T14:44:22.379Z,-3.00
2022-12-18T14:46:51.595Z,-3.00
2022-12-18T14:49:24.600Z,-3.00
2022-12-18T14:51:57.705Z,-3.00
2022-12-18T14:54:26.157Z,-3.00
2022-12-18T14:57:14.358Z,-3.00
2022-12-18T14:59:41.257Z,-3.10
2022-12-18T15:02:20.034Z,-3.00
2022-12-18T15:04:47.375Z,-3.00
2022-12-18T15:07:22.492Z,-3.00
2022-12-18T15:10:08.335Z,-3.00
2022-12-18T15:13:00.874Z,-2.90
2022-12-18T15:15:37.164Z,-2.90
2022-12-18T15:18:11.335Z,-3.00
2022-12-18T15:20:57.949Z,-2.90
2022-12-18T15:23:39.368Z,-2.90
2022-12-18T15:26:07.437Z,-2.90
2022-12-18T15:28:46.008Z,-2.90
2022-12-18T15:31:13.219Z,-2.90
2022-12-18T15:33:43.898Z,-2.90
2022-12-18T15:36:18.545Z,-2.80
2022-12-18T15:38:56.080Z,-2.80
2022-12-18T15:41:35.803Z,-2.80
2022-12-18T15:44:04.265Z,-2.70
2022-12-18T15:46:32.196Z,-2.70
2022-12-18T15:49:02.567Z,-2.70
2022-12-18T15:51:35.549Z,-2.60
2022-12-18T15:54:04.955Z,-2.60
2022-12-18T15:56:50.622Z,-2.60
2022-12-18T15:59:20.322Z,-2.50
2022-12-18T16:01:49.766Z,-2.50
2022-12-18T16:04:21.027Z,-2.50
2022-12-18T16:07:13.743Z,-2.40
2022-12-18T16:09:36.497Z,-2.40
2022-12-18T16:12:03.538Z,-2.40
2022-12-18T16:14:31.408Z,-2.30
2022-12-18T16:16:59.428Z,-2.30
2022-12-18T16:19:27.789Z,-2.20
2022-12-18T16:21:57.081Z,-2.20
2022-12-18T16:24:26.417Z,-2.20
2022-12-18T16:26:54.405Z,-2.20
2022-12-18T16:29:25.779Z,-2.10
2022-12-18T16:31:53.125Z,-2.10
2022-12-18T16:34:29.166Z,-2.10
2022-12-18T16:37:04.668Z,-2.10
2022-12-18T16:39:34.118Z,-2.10
2022-12-18T16:42:03.888Z,-2.00
2022-12-18T16:44:34.067Z,-2.00
2022-12-18T16:47:03.059Z,-2.00
2022-12-18T16:49:30.814Z,-2.00
2022-12-18T16:51:58.109Z,-2.00
2022-12-18T16:54:25.184Z,-2.00
2022-12-18T16:56:55.651Z,-2.10
2022-12-18T16:59:22.674Z,-2.00
2022-12-18T17:01:49.765Z,-2.00
2022-12-18T17:04:17.419Z,-2.00
2022-12-18T17:06:45.953Z,-1.90
2022-12-18T17:09:16.098Z,-1.90
2022-12-18T17:11:43.454Z,-1.90
2022-12-18T17:14:14.565Z,-1.90
2022-12-18T17:16:41.530Z,-1.90
2022-12-18T17:19:12.214Z,-1.90
2022-12-18T17:21:44.959Z,-1.80
2022-12-18T17:24:12.288Z,-1.80
2022-12-18T17:26:39.509Z,-1.80
2022-12-18T17:29:06.661Z,-1.80
2022-12-18T17:31:34.367Z,-1.70
2022-12-18T17:34:04.507Z,-1.70
2022-12-18T17:36:32.451Z,-1.70
2022-12-18T17:39:02.804Z,-1.80
2022-12-18T17:41:30.612Z,-1.70
2022-12-18T17:44:00.082Z,-1.70
2022-12-18T17:46:28.659Z,-1.70
2022-12-18T17:48:56.642Z,-1.70
2022-12-18T17:51:23.932Z,-1.80
2022-12-18T17:53:51.142Z,-1.70
2022-12-18T17:56:19.995Z,-1.70
2022-12-18T17:58:48.121Z,-1.60
2022-12-18T18:01:18.012Z,-1.70
2022-12-18T18:03:47.361Z,-1.70
2022-12-18T18:06:17.343Z,-1.60
2022-12-18T18:08:44.419Z,-1.60
2022-12-18T18:11:32.344Z,-1.50
2022-12-18T18:14:03.025Z,-1.50
2022-12-18T18:16:39.218Z,-1.50
2022-12-18T18:19:12.212Z,-1.50
2022-12-18T18:21:41.764Z,-1.50
2022-12-18T18:24:10.269Z,-1.40
2022-12-18T18:26:38.478Z,-1.40
2022-12-18T18:29:07.544Z,-1.30
2022-12-18T18:31:36.892Z,-1.40
2022-12-18T18:34:08.910Z,-1.30
2022-12-18T18:36:35.710Z,-1.30
2022-12-18T18:39:03.114Z,-1.30
2022-12-18T18:41:30.698Z,-1.20
2022-12-18T18:43:58.269Z,-1.20
2022-12-18T18:46:26.040Z,-1.20
2022-12-18T18:48:53.401Z,-1.10
2022-12-18T18:51:21.569Z,-1.10
2022-12-18T18:53:50.453Z,-1.00
2022-12-18T18:56:45.345Z,-1.00
2022-12-18T18:59:06.652Z,-0.90
2022-12-18T19:01:33.629Z,-0.90
2022-12-18T19:04:01.197Z,-0.90
2022-12-18T19:06:28.601Z,-0.90
2022-12-18T19:08:57.752Z,-0.90
2022-12-18T19:11:44.506Z,-0.90
2022-12-18T19:14:13.538Z,-0.80
2022-12-18T19:16:41.014Z,-0.80
2022-12-18T19:19:08.300Z,-0.80
2022-12-18T19:21:37.361Z,-0.80
2022-12-18T19:24:04.758Z,-0.80
2022-12-18T19:26:31.625Z,-0.80
2022-12-18T19:29:09.347Z,-0.70
2022-12-18T19:31:37.318Z,-0.70
2022-12-18T19:34:07.002Z,-0.70
2022-12-18T19:36:36.232Z,-0.70
2022-12-18T19:39:09.762Z,-0.60
2022-12-18T19:41:36.672Z,-0.60
2022-12-18T19:44:07.740Z,-0.60
2022-12-18T19:46:36.224Z,-0.60
2022-12-18T19:49:07.528Z,-0.50
2022-12-18T19:51:34.563Z,-0.50
2022-12-18T19:54:02.237Z,-0.50
2022-12-18T19:56:32.385Z,-0.40
2022-12-18T19:58:59.845Z,-0.40
2022-12-18T20:01:28.532Z,-0.40
2022-12-18T20:03:57.575Z,-0.40
2022-12-18T20:06:27.891Z,-0.40
2022-12-18T20:09:00.267Z,-0.30
2022-12-18T20:11:28.768Z,-0.30
2022-12-18T20:13:55.785Z,-0.30
2022-12-18T20:16:23.735Z,-0.30
2022-12-18T20:18:50.848Z,-0.30
2022-12-18T20:21:19.069Z,-0.30
2022-12-18T20:23:46.379Z,-0.30
2022-12-18T20:26:13.668Z,-0.30
2022-12-18T20:28:40.829Z,-0.40
2022-12-18T20:31:10.410Z,-0.40
2022-12-18T20:33:41.310Z,-0.40
2022-12-18T20:36:12.804Z,-0.40
2022-12-18T20:38:39.812Z,-0.40
2022-12-18T20:41:11.980Z,-0.40
2022-12-18T20:43:39.907Z,-0.40
2022-12-18T20:46:10.574Z,-0.40
2022-12-18T20:48:37.574Z,-0.40
2022-12-18T20:51:19.313Z,-0.40
2022-12-18T20:53:46.895Z,-0.40
2022-12-18T20:56:21.616Z,-0.40
2022-12-18T20:58:49.574Z,-0.30
2022-12-18T21:01:19.956Z,-0.30
2022-12-18T21:03:47.975Z,-0.30
2022-12-18T21:06:17.138Z,-0.30
2022-12-18T21:08:44.822Z,-0.30
2022-12-18T21:11:39.339Z,-0.20
2022-12-18T21:14:15.536Z,-0.20
2022-12-18T21:16:43.991Z,-0.10
2022-12-18T21:19:17.754Z,-0.10
2022-12-18T21:21:45.926Z,-0.10
2022-12-18T21:24:13.147Z,-0.10
2022-12-18T21:26:45.783Z,-0.10
2022-12-18T21:29:20.086Z,-0.10
2022-12-18T21:31:47.534Z,0.00
2022-12-18T21:34:26.463Z,0.10
2022-12-18T21:36:54.773Z,0.00
2022-12-18T21:39:22.575Z,0.00
2022-12-18T21:42:09.084Z,0.00
2022-12-18T21:44:38.471Z,0.00
2022-12-18T21:47:17.705Z,0.00
2022-12-18T21:49:53.335Z,0.00
2022-12-18T21:52:31.757Z,0.10
2022-12-18T21:55:06.650Z,0.10
2022-12-18T21:57:35.896Z,0.10
2022-12-18T22:00:03.144Z,0.10
2022-12-18T22:02:30.277Z,0.10
2022-12-18T22:04:57.169Z,0.10
2022-12-18T22:07:24.452Z,0.10
2022-12-18T22:09:51.271Z,0.10
2022-12-18T22:12:35.516Z,0.20
2022-12-18T22:15:05.320Z,0.20
2022-12-18T22:17:32.200Z,0.20
2022-12-18T22:19:59.132Z,0.20
2022-12-18T22:22:26.089Z,0.20
2022-12-18T22:24:52.951Z,0.20
2022-12-18T22:27:19.841Z,0.20
2022-12-18T22:30:04.783Z,0.30
2022-12-18T22:32:33.446Z,0.30
2022-12-18T22:35:06.260Z,0.30
2022-12-18T22:37:35.123Z,0.30
2022-12-18T22:40:02.969Z,0.30
2022-12-18T22:42:30.693Z,0.30
2022-12-18T22:44:57.506Z,0.30
2022-12-18T22:47:29.377Z,0.30
2022-12-18T22:49:57.200Z,0.30
2022-12-18T22:52:24.705Z,0.30
2022-12-18T22:54:53.641Z,0.30
2022-12-18T22:57:21.853Z,0.30
2022-12-18T22:59:49.510Z,0.30
2022-12-18T23:02:17.844Z,0.30
2022-12-18T23:04:45.178Z,0.30
2022-12-18T23:07:12.557Z,0.20
2022-12-18T23:09:40.128Z,0.20
2022-12-18T23:12:07.638Z,0.30
2022-12-18T23:14:34.570Z,0.30
2022-12-18T23:17:01.417Z,0.30
2022-12-18T23:19:29.119Z,0.30
2022-12-18T23:21:58.712Z,0.20
2022-12-18T23:24:26.228Z,0.20
2022-12-18T23:26:53.125Z,0.20
2022-12-18T23:29:20.128Z,0.20
2022-12-18T23:31:47.463Z,0.20
2022-12-18T23:34:15.375Z,0.20
2022-12-18T23:36:45.301Z,0.20
2022-12-18T23:39:28.396Z,0.20
2022-12-18T23:41:56.597Z,0.20
2022-12-18T23:44:23.532Z,0.20
2022-12-18T23:46:50.672Z,0.20
2022-12-18T23:49:17.565Z,0.10
2022-12-18T23:51:44.426Z,0.20
2022-12-18T23:54:11.312Z,0.20
2022-12-18T23:56:38.226Z,0.20
2022-12-18T23:59:05.115Z,0.20
